sensor_id;sensor_type;location;lat;lon;timestamp;temperature;humidity
19292;DHT22;9779;51.756;7.450;2023-07-30T00:01:56;18.30;99.90
19292;DHT22;9779;51.756;7.450;2023-07-30T00:04:21;18.30;99.90
19292;DHT22;9779;51.756;7.450;2023-07-30T00:06:47;18.30;99.90
19292;DHT22;9779;51.756;7.450;2023-07-30T00:09:13;18.30;99.90
19292;DHT22;9779;51.756;7.450;2023-07-30T00:11:38;18.30;99.90
19292;DHT22;9779;51.756;7.450;2023-07-30T00:14:04;18.30;99.90
19292;DHT22;9779;51.756;7.450;2023-07-30T00:16:30;18.20;99.90
19292;DHT22;9779;51.756;7.450;2023-07-30T00:18:55;18.20;99.90
19292;DHT22;9779;51.756;7.450;2023-07-30T00:21:22;18.20;99.90
19292;DHT22;9779;51.756;7.450;2023-07-30T00:23:47;18.20;99.90
19292;DHT22;9779;51.756;7.450;2023-07-30T00:26:13;18.10;99.90
19292;DHT22;9779;51.756;7.450;2023-07-30T00:28:38;18.10;99.90
19292;DHT22;9779;51.756;7.450;2023-07-30T00:31:04;18.10;99.90
19292;DHT22;9779;51.756;7.450;2023-07-30T00:33:29;18.10;99.90
19292;DHT22;9779;51.756;7.450;2023-07-30T00:35:55;18.10;99.90
19292;DHT22;9779;51.756;7.450;2023-07-30T00:38:20;18.00;99.90
19292;DHT22;9779;51.756;7.450;2023-07-30T00:40:46;18.00;99.90
19292;DHT22;9779;51.756;7.450;2023-07-30T00:43:12;17.90;99.90
19292;DHT22;9779;51.756;7.450;2023-07-30T00:45:40;17.90;99.90
19292;DHT22;9779;51.756;7.450;2023-07-30T00:48:06;17.80;99.90
19292;DHT22;9779;51.756;7.450;2023-07-30T00:50:32;17.80;99.90
19292;DHT22;9779;51.756;7.450;2023-07-30T00:52:58;17.80;99.90
19292;DHT22;9779;51.756;7.450;2023-07-30T00:55:24;17.70;99.90
19292;DHT22;9779;51.756;7.450;2023-07-30T00:57:50;17.70;99.90
19292;DHT22;9779;51.756;7.450;2023-07-30T01:00:17;17.70;99.90
19292;DHT22;9779;51.756;7.450;2023-07-30T01:02:43;17.60;99.90
19292;DHT22;9779;51.756;7.450;2023-07-30T01:05:08;17.60;99.90
19292;DHT22;9779;51.756;7.450;2023-07-30T01:07:34;17.60;99.90
19292;DHT22;9779;51.756;7.450;2023-07-30T01:10:00;17.50;99.90
19292;DHT22;9779;51.756;7.450;2023-07-30T01:12:27;17.40;99.90
19292;DHT22;9779;51.756;7.450;2023-07-30T01:14:55;17.50;99.90
19292;DHT22;9779;51.756;7.450;2023-07-30T01:17:22;17.40;99.90
19292;DHT22;9779;51.756;7.450;2023-07-30T01:19:47;17.40;99.90
19292;DHT22;9779;51.756;7.450;2023-07-30T01:22:15;17.40;99.90
19292;DHT22;9779;51.756;7.450;2023-07-30T01:24:40;17.30;99.90
19292;DHT22;9779;51.756;7.450;2023-07-30T01:27:08;17.30;99.90
19292;DHT22;9779;51.756;7.450;2023-07-30T01:29:51;17.40;99.90
19292;DHT22;9779;51.756;7.450;2023-07-30T01:32:20;17.20;99.90
19292;DHT22;9779;51.756;7.450;2023-07-30T01:34:52;17.20;99.90
19292;DHT22;9779;51.756;7.450;2023-07-30T01:37:18;17.20;99.90
19292;DHT22;9779;51.756;7.450;2023-07-30T01:39:45;17.20;99.90
19292;DHT22;9779;51.756;7.450;2023-07-30T01:42:13;17.10;99.90
19292;DHT22;9779;51.756;7.450;2023-07-30T01:44:38;17.10;99.90
19292;DHT22;9779;51.756;7.450;2023-07-30T01:47:04;17.10;99.90
19292;DHT22;9779;51.756;7.450;2023-07-30T01:49:29;17.10;99.90
19292;DHT22;9779;51.756;7.450;2023-07-30T01:51:55;17.10;99.90
19292;DHT22;9779;51.756;7.450;2023-07-30T01:54:20;17.00;99.90
19292;DHT22;9779;51.756;7.450;2023-07-30T01:56:46;17.00;99.90
19292;DHT22;9779;51.756;7.450;2023-07-30T01:59:12;17.00;99.90
19292;DHT22;9779;51.756;7.450;2023-07-30T02:01:38;16.90;99.90
19292;DHT22;9779;51.756;7.450;2023-07-30T02:04:03;16.90;99.90
19292;DHT22;9779;51.756;7.450;2023-07-30T02:06:29;16.90;99.90
19292;DHT22;9779;51.756;7.450;2023-07-30T02:08:54;16.90;99.90
19292;DHT22;9779;51.756;7.450;2023-07-30T02:11:20;16.80;99.90
19292;DHT22;9779;51.756;7.450;2023-07-30T02:13:45;16.80;99.90
19292;DHT22;9779;51.756;7.450;2023-07-30T02:16:11;16.70;99.90
19292;DHT22;9779;51.756;7.450;2023-07-30T02:18:36;16.70;99.90
19292;DHT22;9779;51.756;7.450;2023-07-30T02:21:02;16.60;99.90
19292;DHT22;9779;51.756;7.450;2023-07-30T02:23:28;16.60;99.90
19292;DHT22;9779;51.756;7.450;2023-07-30T02:25:53;16.60;99.90
19292;DHT22;9779;51.756;7.450;2023-07-30T02:28:19;16.60;99.90
19292;DHT22;9779;51.756;7.450;2023-07-30T02:30:44;16.60;99.90
19292;DHT22;9779;51.756;7.450;2023-07-30T02:33:10;16.50;99.90
19292;DHT22;9779;51.756;7.450;2023-07-30T02:35:35;16.40;99.10
19292;DHT22;9779;51.756;7.450;2023-07-30T02:38:01;16.40;99.90
19292;DHT22;9779;51.756;7.450;2023-07-30T02:40:26;16.40;99.90
19292;DHT22;9779;51.756;7.450;2023-07-30T02:42:52;16.30;99.90
19292;DHT22;9779;51.756;7.450;2023-07-30T02:45:18;16.30;99.90
19292;DHT22;9779;51.756;7.450;2023-07-30T02:47:43;16.30;99.90
19292;DHT22;9779;51.756;7.450;2023-07-30T02:50:09;16.30;99.90
19292;DHT22;9779;51.756;7.450;2023-07-30T02:52:35;16.20;99.90
19292;DHT22;9779;51.756;7.450;2023-07-30T02:55:00;16.20;99.90
19292;DHT22;9779;51.756;7.450;2023-07-30T02:57:26;16.20;99.10
19292;DHT22;9779;51.756;7.450;2023-07-30T02:59:51;16.20;92.70
19292;DHT22;9779;51.756;7.450;2023-07-30T03:02:17;16.10;99.90
19292;DHT22;9779;51.756;7.450;2023-07-30T03:04:42;16.10;99.90
19292;DHT22;9779;51.756;7.450;2023-07-30T03:07:09;16.00;97.60
19292;DHT22;9779;51.756;7.450;2023-07-30T03:09:35;16.00;95.80
19292;DHT22;9779;51.756;7.450;2023-07-30T03:12:00;16.00;99.90
19292;DHT22;9779;51.756;7.450;2023-07-30T03:14:26;16.00;99.90
19292;DHT22;9779;51.756;7.450;2023-07-30T03:16:51;16.00;99.90
19292;DHT22;9779;51.756;7.450;2023-07-30T03:19:17;16.00;99.90
19292;DHT22;9779;51.756;7.450;2023-07-30T03:21:42;15.90;99.90
19292;DHT22;9779;51.756;7.450;2023-07-30T03:24:08;15.90;99.90
19292;DHT22;9779;51.756;7.450;2023-07-30T03:26:34;15.90;99.90
19292;DHT22;9779;51.756;7.450;2023-07-30T03:28:59;15.90;99.90
19292;DHT22;9779;51.756;7.450;2023-07-30T03:31:25;15.90;99.90
19292;DHT22;9779;51.756;7.450;2023-07-30T03:33:51;15.90;99.90
19292;DHT22;9779;51.756;7.450;2023-07-30T03:36:16;15.90;99.90
19292;DHT22;9779;51.756;7.450;2023-07-30T03:38:43;15.90;99.90
19292;DHT22;9779;51.756;7.450;2023-07-30T03:41:10;15.80;99.90
19292;DHT22;9779;51.756;7.450;2023-07-30T03:43:36;15.80;99.90
19292;DHT22;9779;51.756;7.450;2023-07-30T03:46:02;15.80;99.90
19292;DHT22;9779;51.756;7.450;2023-07-30T03:48:28;15.70;99.90
19292;DHT22;9779;51.756;7.450;2023-07-30T03:50:54;15.70;99.90
19292;DHT22;9779;51.756;7.450;2023-07-30T03:53:20;15.70;99.90
19292;DHT22;9779;51.756;7.450;2023-07-30T03:55:46;15.60;99.90
19292;DHT22;9779;51.756;7.450;2023-07-30T03:58:11;15.70;99.90
19292;DHT22;9779;51.756;7.450;2023-07-30T04:00:37;15.70;99.90
19292;DHT22;9779;51.756;7.450;2023-07-30T04:03:02;15.60;99.90
19292;DHT22;9779;51.756;7.450;2023-07-30T04:05:29;15.60;99.90
19292;DHT22;9779;51.756;7.450;2023-07-30T04:07:55;15.60;99.90
19292;DHT22;9779;51.756;7.450;2023-07-30T04:10:20;15.50;99.90
19292;DHT22;9779;51.756;7.450;2023-07-30T04:12:46;15.60;99.90
19292;DHT22;9779;51.756;7.450;2023-07-30T04:15:11;15.50;99.90
19292;DHT22;9779;51.756;7.450;2023-07-30T04:17:37;15.50;99.90
19292;DHT22;9779;51.756;7.450;2023-07-30T04:20:04;15.50;99.90
19292;DHT22;9779;51.756;7.450;2023-07-30T04:22:30;15.50;99.90
19292;DHT22;9779;51.756;7.450;2023-07-30T04:24:56;15.50;99.90
19292;DHT22;9779;51.756;7.450;2023-07-30T04:27:21;15.40;99.90
19292;DHT22;9779;51.756;7.450;2023-07-30T04:29:47;15.40;99.90
19292;DHT22;9779;51.756;7.450;2023-07-30T04:32:12;15.40;99.90
19292;DHT22;9779;51.756;7.450;2023-07-30T04:34:38;15.40;99.90
19292;DHT22;9779;51.756;7.450;2023-07-30T04:37:04;15.30;99.90
19292;DHT22;9779;51.756;7.450;2023-07-30T04:39:32;15.40;99.90
19292;DHT22;9779;51.756;7.450;2023-07-30T04:41:57;15.40;99.90
19292;DHT22;9779;51.756;7.450;2023-07-30T04:44:23;15.30;99.90
19292;DHT22;9779;51.756;7.450;2023-07-30T04:46:48;15.30;99.90
19292;DHT22;9779;51.756;7.450;2023-07-30T04:49:14;15.30;99.90
19292;DHT22;9779;51.756;7.450;2023-07-30T04:51:40;15.30;99.90
19292;DHT22;9779;51.756;7.450;2023-07-30T04:54:05;15.30;99.90
19292;DHT22;9779;51.756;7.450;2023-07-30T04:56:31;15.30;99.90
19292;DHT22;9779;51.756;7.450;2023-07-30T04:58:56;15.40;99.90
19292;DHT22;9779;51.756;7.450;2023-07-30T05:01:23;15.40;99.90
19292;DHT22;9779;51.756;7.450;2023-07-30T05:03:49;15.40;99.90
19292;DHT22;9779;51.756;7.450;2023-07-30T05:06:14;15.40;99.90
19292;DHT22;9779;51.756;7.450;2023-07-30T05:08:40;15.40;99.90
19292;DHT22;9779;51.756;7.450;2023-07-30T05:11:05;15.50;99.90
19292;DHT22;9779;51.756;7.450;2023-07-30T05:13:31;15.50;99.90
19292;DHT22;9779;51.756;7.450;2023-07-30T05:15:56;15.50;99.90
19292;DHT22;9779;51.756;7.450;2023-07-30T05:18:22;15.50;99.90
19292;DHT22;9779;51.756;7.450;2023-07-30T05:20:48;15.50;99.90
19292;DHT22;9779;51.756;7.450;2023-07-30T05:23:14;15.60;99.90
19292;DHT22;9779;51.756;7.450;2023-07-30T05:25:40;15.50;99.90
19292;DHT22;9779;51.756;7.450;2023-07-30T05:28:05;15.60;99.90
19292;DHT22;9779;51.756;7.450;2023-07-30T05:30:31;15.50;99.90
19292;DHT22;9779;51.756;7.450;2023-07-30T05:32:56;15.50;99.90
19292;DHT22;9779;51.756;7.450;2023-07-30T05:35:22;15.60;99.90
19292;DHT22;9779;51.756;7.450;2023-07-30T05:37:47;15.60;99.90
19292;DHT22;9779;51.756;7.450;2023-07-30T05:40:13;15.60;99.90
19292;DHT22;9779;51.756;7.450;2023-07-30T05:42:39;15.60;99.90
19292;DHT22;9779;51.756;7.450;2023-07-30T05:45:04;15.50;99.90
19292;DHT22;9779;51.756;7.450;2023-07-30T05:47:30;15.60;99.90
19292;DHT22;9779;51.756;7.450;2023-07-30T05:49:56;15.50;99.90
19292;DHT22;9779;51.756;7.450;2023-07-30T05:52:21;15.60;99.90
19292;DHT22;9779;51.756;7.450;2023-07-30T05:54:47;15.60;99.90
19292;DHT22;9779;51.756;7.450;2023-07-30T05:57:12;15.60;99.90
19292;DHT22;9779;51.756;7.450;2023-07-30T05:59:38;15.50;99.90
19292;DHT22;9779;51.756;7.450;2023-07-30T06:02:04;15.50;99.90
19292;DHT22;9779;51.756;7.450;2023-07-30T06:04:30;15.50;99.90
19292;DHT22;9779;51.756;7.450;2023-07-30T06:06:56;15.50;99.90
19292;DHT22;9779;51.756;7.450;2023-07-30T06:09:21;15.50;99.90
19292;DHT22;9779;51.756;7.450;2023-07-30T06:11:47;15.50;99.90
19292;DHT22;9779;51.756;7.450;2023-07-30T06:14:12;15.50;99.90
19292;DHT22;9779;51.756;7.450;2023-07-30T06:16:38;15.50;99.90
19292;DHT22;9779;51.756;7.450;2023-07-30T06:19:03;15.50;99.90
19292;DHT22;9779;51.756;7.450;2023-07-30T06:21:29;15.50;99.90
19292;DHT22;9779;51.756;7.450;2023-07-30T06:23:54;15.50;99.90
19292;DHT22;9779;51.756;7.450;2023-07-30T06:26:20;15.50;99.90
19292;DHT22;9779;51.756;7.450;2023-07-30T06:28:45;15.50;99.90
19292;DHT22;9779;51.756;7.450;2023-07-30T06:31:11;15.60;99.90
19292;DHT22;9779;51.756;7.450;2023-07-30T06:33:36;15.60;99.90
19292;DHT22;9779;51.756;7.450;2023-07-30T06:36:03;15.60;99.90
19292;DHT22;9779;51.756;7.450;2023-07-30T06:38:29;15.50;99.90
19292;DHT22;9779;51.756;7.450;2023-07-30T06:40:55;15.60;99.90
19292;DHT22;9779;51.756;7.450;2023-07-30T06:43:23;15.60;99.90
19292;DHT22;9779;51.756;7.450;2023-07-30T06:45:48;15.60;99.90
19292;DHT22;9779;51.756;7.450;2023-07-30T06:48:14;15.60;99.90
19292;DHT22;9779;51.756;7.450;2023-07-30T06:50:41;15.70;99.90
19292;DHT22;9779;51.756;7.450;2023-07-30T06:53:07;15.70;99.90
19292;DHT22;9779;51.756;7.450;2023-07-30T06:55:32;15.70;99.90
19292;DHT22;9779;51.756;7.450;2023-07-30T06:57:58;15.70;99.90
19292;DHT22;9779;51.756;7.450;2023-07-30T07:00:24;15.80;99.90
19292;DHT22;9779;51.756;7.450;2023-07-30T07:02:50;15.80;99.90
19292;DHT22;9779;51.756;7.450;2023-07-30T07:05:16;15.90;99.90
19292;DHT22;9779;51.756;7.450;2023-07-30T07:07:41;15.90;99.90
19292;DHT22;9779;51.756;7.450;2023-07-30T07:10:07;15.90;99.90
19292;DHT22;9779;51.756;7.450;2023-07-30T07:12:34;16.00;99.90
19292;DHT22;9779;51.756;7.450;2023-07-30T07:14:59;16.00;99.90
19292;DHT22;9779;51.756;7.450;2023-07-30T07:17:27;16.00;99.90
19292;DHT22;9779;51.756;7.450;2023-07-30T07:19:52;16.10;99.90
19292;DHT22;9779;51.756;7.450;2023-07-30T07:22:18;16.10;99.90
19292;DHT22;9779;51.756;7.450;2023-07-30T07:24:46;16.10;99.90
19292;DHT22;9779;51.756;7.450;2023-07-30T07:27:12;16.20;99.90
19292;DHT22;9779;51.756;7.450;2023-07-30T07:29:38;16.20;99.90
19292;DHT22;9779;51.756;7.450;2023-07-30T07:32:03;16.30;99.90
19292;DHT22;9779;51.756;7.450;2023-07-30T07:34:29;16.40;99.90
19292;DHT22;9779;51.756;7.450;2023-07-30T07:36:55;16.40;99.90
19292;DHT22;9779;51.756;7.450;2023-07-30T07:39:20;16.40;99.90
19292;DHT22;9779;51.756;7.450;2023-07-30T07:41:46;16.40;99.90
19292;DHT22;9779;51.756;7.450;2023-07-30T07:44:11;16.40;99.90
19292;DHT22;9779;51.756;7.450;2023-07-30T07:46:37;16.40;99.90
19292;DHT22;9779;51.756;7.450;2023-07-30T07:49:02;16.30;99.90
19292;DHT22;9779;51.756;7.450;2023-07-30T07:51:28;16.40;99.90
19292;DHT22;9779;51.756;7.450;2023-07-30T07:53:53;16.40;99.90
19292;DHT22;9779;51.756;7.450;2023-07-30T07:56:19;16.40;99.90
19292;DHT22;9779;51.756;7.450;2023-07-30T07:58:45;16.40;99.90
19292;DHT22;9779;51.756;7.450;2023-07-30T08:01:10;16.40;99.90
19292;DHT22;9779;51.756;7.450;2023-07-30T08:03:36;16.40;99.90
19292;DHT22;9779;51.756;7.450;2023-07-30T08:06:01;16.40;99.90
19292;DHT22;9779;51.756;7.450;2023-07-30T08:08:27;16.40;99.90
19292;DHT22;9779;51.756;7.450;2023-07-30T08:10:53;16.50;99.90
19292;DHT22;9779;51.756;7.450;2023-07-30T08:13:19;16.60;99.90
19292;DHT22;9779;51.756;7.450;2023-07-30T08:15:45;16.70;99.90
19292;DHT22;9779;51.756;7.450;2023-07-30T08:18:11;16.70;99.90
19292;DHT22;9779;51.756;7.450;2023-07-30T08:20:36;16.80;99.90
19292;DHT22;9779;51.756;7.450;2023-07-30T08:23:02;16.80;99.90
19292;DHT22;9779;51.756;7.450;2023-07-30T08:25:28;16.90;99.90
19292;DHT22;9779;51.756;7.450;2023-07-30T08:27:53;17.00;99.90
19292;DHT22;9779;51.756;7.450;2023-07-30T08:30:19;17.20;99.90
19292;DHT22;9779;51.756;7.450;2023-07-30T08:32:45;17.40;99.90
19292;DHT22;9779;51.756;7.450;2023-07-30T08:35:10;17.40;99.90
19292;DHT22;9779;51.756;7.450;2023-07-30T08:37:36;17.60;99.90
19292;DHT22;9779;51.756;7.450;2023-07-30T08:40:02;17.60;99.90
19292;DHT22;9779;51.756;7.450;2023-07-30T08:42:28;17.50;99.90
19292;DHT22;9779;51.756;7.450;2023-07-30T08:45:00;17.50;99.90
19292;DHT22;9779;51.756;7.450;2023-07-30T08:47:25;17.50;99.50
19292;DHT22;9779;51.756;7.450;2023-07-30T08:49:51;17.50;99.90
19292;DHT22;9779;51.756;7.450;2023-07-30T08:52:17;17.40;98.80
19292;DHT22;9779;51.756;7.450;2023-07-30T08:54:49;17.40;99.90
19292;DHT22;9779;51.756;7.450;2023-07-30T08:57:17;17.60;99.90
19292;DHT22;9779;51.756;7.450;2023-07-30T08:59:57;17.60;99.90
19292;DHT22;9779;51.756;7.450;2023-07-30T09:02:40;17.80;86.50
19292;DHT22;9779;51.756;7.450;2023-07-30T09:05:11;18.20;22.80
19292;DHT22;9779;51.756;7.450;2023-07-30T09:07:36;18.00;22.70
19292;DHT22;9779;51.756;7.450;2023-07-30T09:10:02;17.90;1.00
19292;DHT22;9779;51.756;7.450;2023-07-30T09:12:34;17.90;1.00
19292;DHT22;9779;51.756;7.450;2023-07-30T09:15:01;17.90;1.00
19292;DHT22;9779;51.756;7.450;2023-07-30T09:17:27;17.90;1.00
19292;DHT22;9779;51.756;7.450;2023-07-30T09:19:53;17.90;1.00
19292;DHT22;9779;51.756;7.450;2023-07-30T09:22:29;17.90;1.00
19292;DHT22;9779;51.756;7.450;2023-07-30T09:25:04;17.90;1.00
19292;DHT22;9779;51.756;7.450;2023-07-30T09:27:36;17.90;14.80
19292;DHT22;9779;51.756;7.450;2023-07-30T09:30:03;17.90;1.00
19292;DHT22;9779;51.756;7.450;2023-07-30T09:32:36;17.90;1.00
19292;DHT22;9779;51.756;7.450;2023-07-30T09:35:06;17.90;1.00
19292;DHT22;9779;51.756;7.450;2023-07-30T09:37:37;18.00;1.00
19292;DHT22;9779;51.756;7.450;2023-07-30T09:40:11;18.20;4.70
19292;DHT22;9779;51.756;7.450;2023-07-30T09:42:46;18.30;1.00
19292;DHT22;9779;51.756;7.450;2023-07-30T09:45:24;18.30;1.00
19292;DHT22;9779;51.756;7.450;2023-07-30T09:47:51;18.40;1.00
19292;DHT22;9779;51.756;7.450;2023-07-30T09:50:17;18.40;1.00
19292;DHT22;9779;51.756;7.450;2023-07-30T09:52:44;18.50;1.00
19292;DHT22;9779;51.756;7.450;2023-07-30T09:55:10;18.50;1.00
19292;DHT22;9779;51.756;7.450;2023-07-30T09:57:38;18.50;1.00
19292;DHT22;9779;51.756;7.450;2023-07-30T10:00:05;18.40;1.00
19292;DHT22;9779;51.756;7.450;2023-07-30T10:02:38;18.40;1.00
19292;DHT22;9779;51.756;7.450;2023-07-30T10:05:11;18.50;1.00
19292;DHT22;9779;51.756;7.450;2023-07-30T10:07:42;18.80;1.00
19292;DHT22;9779;51.756;7.450;2023-07-30T10:10:12;18.70;1.00
19292;DHT22;9779;51.756;7.450;2023-07-30T10:12:39;18.90;1.00
19292;DHT22;9779;51.756;7.450;2023-07-30T10:15:11;19.00;1.00
19292;DHT22;9779;51.756;7.450;2023-07-30T10:17:37;19.00;1.00
19292;DHT22;9779;51.756;7.450;2023-07-30T10:22:55;19.20;1.00
19292;DHT22;9779;51.756;7.450;2023-07-30T10:25:22;19.20;1.00
19292;DHT22;9779;51.756;7.450;2023-07-30T10:27:50;19.10;1.00
19292;DHT22;9779;51.756;7.450;2023-07-30T10:30:27;19.20;1.00
19292;DHT22;9779;51.756;7.450;2023-07-30T10:35:40;19.20;1.00
19292;DHT22;9779;51.756;7.450;2023-07-30T10:38:19;19.10;1.00
19292;DHT22;9779;51.756;7.450;2023-07-30T10:41:10;19.40;99.90
19292;DHT22;9779;51.756;7.450;2023-07-30T10:43:48;19.50;99.90
19292;DHT22;9779;51.756;7.450;2023-07-30T10:46:16;19.70;1.00
19292;DHT22;9779;51.756;7.450;2023-07-30T10:48:46;19.90;99.90
19292;DHT22;9779;51.756;7.450;2023-07-30T10:51:14;20.10;1.00
19292;DHT22;9779;51.756;7.450;2023-07-30T10:53:47;19.90;32.70
19292;DHT22;9779;51.756;7.450;2023-07-30T10:56:22;19.80;1.00
19292;DHT22;9779;51.756;7.450;2023-07-30T10:58:53;19.60;1.00
19292;DHT22;9779;51.756;7.450;2023-07-30T11:01:24;19.50;99.90
19292;DHT22;9779;51.756;7.450;2023-07-30T11:03:51;19.40;99.90
19292;DHT22;9779;51.756;7.450;2023-07-30T11:06:22;19.40;99.90
19292;DHT22;9779;51.756;7.450;2023-07-30T11:08:48;19.40;99.90
19292;DHT22;9779;51.756;7.450;2023-07-30T11:11:14;19.30;1.00
19292;DHT22;9779;51.756;7.450;2023-07-30T11:13:41;19.20;99.90
19292;DHT22;9779;51.756;7.450;2023-07-30T11:16:15;19.10;1.00
19292;DHT22;9779;51.756;7.450;2023-07-30T11:18:41;19.00;1.00
19292;DHT22;9779;51.756;7.450;2023-07-30T11:21:15;18.70;1.00
19292;DHT22;9779;51.756;7.450;2023-07-30T11:23:45;18.70;1.00
19292;DHT22;9779;51.756;7.450;2023-07-30T11:26:16;18.80;1.00
19292;DHT22;9779;51.756;7.450;2023-07-30T11:28:46;18.90;1.00
19292;DHT22;9779;51.756;7.450;2023-07-30T11:31:14;19.10;1.00
19292;DHT22;9779;51.756;7.450;2023-07-30T11:33:42;19.20;1.00
19292;DHT22;9779;51.756;7.450;2023-07-30T11:36:22;19.30;1.00
19292;DHT22;9779;51.756;7.450;2023-07-30T11:38:49;19.50;1.00
19292;DHT22;9779;51.756;7.450;2023-07-30T11:41:16;19.90;1.00
19292;DHT22;9779;51.756;7.450;2023-07-30T11:43:49;19.90;1.00
19292;DHT22;9779;51.756;7.450;2023-07-30T11:46:17;19.90;1.00
19292;DHT22;9779;51.756;7.450;2023-07-30T11:48:48;20.10;99.90
19292;DHT22;9779;51.756;7.450;2023-07-30T11:51:25;20.10;1.00
19292;DHT22;9779;51.756;7.450;2023-07-30T11:53:52;20.20;1.00
19292;DHT22;9779;51.756;7.450;2023-07-30T11:58:49;20.10;99.90
19292;DHT22;9779;51.756;7.450;2023-07-30T12:01:16;19.90;1.00
19292;DHT22;9779;51.756;7.450;2023-07-30T12:03:42;19.90;1.00
19292;DHT22;9779;51.756;7.450;2023-07-30T12:06:10;19.80;1.00
19292;DHT22;9779;51.756;7.450;2023-07-30T12:08:35;19.70;1.00
19292;DHT22;9779;51.756;7.450;2023-07-30T12:11:05;19.60;1.00
19292;DHT22;9779;51.756;7.450;2023-07-30T12:13:32;19.40;99.90
19292;DHT22;9779;51.756;7.450;2023-07-30T12:15:58;19.30;1.00
19292;DHT22;9779;51.756;7.450;2023-07-30T12:18:25;19.10;1.00
19292;DHT22;9779;51.756;7.450;2023-07-30T12:20:57;19.00;1.00
19292;DHT22;9779;51.756;7.450;2023-07-30T12:23:23;18.90;1.00
19292;DHT22;9779;51.756;7.450;2023-07-30T12:25:50;18.80;1.00
19292;DHT22;9779;51.756;7.450;2023-07-30T12:28:19;18.70;1.00
19292;DHT22;9779;51.756;7.450;2023-07-30T12:30:45;18.60;1.00
19292;DHT22;9779;51.756;7.450;2023-07-30T12:33:10;18.40;1.00
19292;DHT22;9779;51.756;7.450;2023-07-30T12:35:36;18.00;1.00
19292;DHT22;9779;51.756;7.450;2023-07-30T12:38:01;17.70;1.00
19292;DHT22;9779;51.756;7.450;2023-07-30T12:40:30;17.20;1.00
19292;DHT22;9779;51.756;7.450;2023-07-30T12:43:00;17.00;1.00
19292;DHT22;9779;51.756;7.450;2023-07-30T12:45:27;17.00;27.10
19292;DHT22;9779;51.756;7.450;2023-07-30T12:47:52;17.00;12.80
19292;DHT22;9779;51.756;7.450;2023-07-30T12:50:18;16.90;1.00
19292;DHT22;9779;51.756;7.450;2023-07-30T12:52:44;16.90;22.40
19292;DHT22;9779;51.756;7.450;2023-07-30T12:55:09;16.80;53.80
19292;DHT22;9779;51.756;7.450;2023-07-30T12:57:44;16.70;91.90
19292;DHT22;9779;51.756;7.450;2023-07-30T13:00:10;16.70;99.90
19292;DHT22;9779;51.756;7.450;2023-07-30T13:02:39;16.90;99.90
19292;DHT22;9779;51.756;7.450;2023-07-30T13:05:05;16.90;99.90
19292;DHT22;9779;51.756;7.450;2023-07-30T13:07:30;17.00;99.90
19292;DHT22;9779;51.756;7.450;2023-07-30T13:12:30;17.70;99.90
19292;DHT22;9779;51.756;7.450;2023-07-30T13:14:56;18.10;99.90
19292;DHT22;9779;51.756;7.450;2023-07-30T13:17:21;18.10;99.90
19292;DHT22;9779;51.756;7.450;2023-07-30T13:19:47;18.10;99.90
19292;DHT22;9779;51.756;7.450;2023-07-30T13:22:13;18.20;99.90
19292;DHT22;9779;51.756;7.450;2023-07-30T13:24:38;18.20;99.90
19292;DHT22;9779;51.756;7.450;2023-07-30T13:27:07;18.20;99.90
19292;DHT22;9779;51.756;7.450;2023-07-30T13:29:33;18.40;99.90
19292;DHT22;9779;51.756;7.450;2023-07-30T13:31:59;18.90;99.90
19292;DHT22;9779;51.756;7.450;2023-07-30T13:34:24;19.00;99.90
19292;DHT22;9779;51.756;7.450;2023-07-30T13:36:52;18.80;1.00
19292;DHT22;9779;51.756;7.450;2023-07-30T13:39:20;18.60;1.00
19292;DHT22;9779;51.756;7.450;2023-07-30T13:41:46;18.50;17.00
19292;DHT22;9779;51.756;7.450;2023-07-30T13:44:12;18.30;1.00
19292;DHT22;9779;51.756;7.450;2023-07-30T13:46:37;18.30;38.80
19292;DHT22;9779;51.756;7.450;2023-07-30T13:49:05;18.20;1.00
19292;DHT22;9779;51.756;7.450;2023-07-30T13:51:31;18.10;1.00
19292;DHT22;9779;51.756;7.450;2023-07-30T13:54:05;18.20;3.70
19292;DHT22;9779;51.756;7.450;2023-07-30T13:56:36;18.20;21.00
19292;DHT22;9779;51.756;7.450;2023-07-30T13:59:04;18.20;1.00
19292;DHT22;9779;51.756;7.450;2023-07-30T14:01:29;18.10;1.00
19292;DHT22;9779;51.756;7.450;2023-07-30T14:03:55;18.20;1.00
19292;DHT22;9779;51.756;7.450;2023-07-30T14:06:27;18.30;3.90
19292;DHT22;9779;51.756;7.450;2023-07-30T14:08:54;18.40;1.00
19292;DHT22;9779;51.756;7.450;2023-07-30T14:11:19;18.60;1.00
19292;DHT22;9779;51.756;7.450;2023-07-30T14:13:51;18.70;1.00
19292;DHT22;9779;51.756;7.450;2023-07-30T14:16:17;18.80;1.00
19292;DHT22;9779;51.756;7.450;2023-07-30T14:18:42;19.20;1.00
19292;DHT22;9779;51.756;7.450;2023-07-30T14:21:08;19.50;1.00
19292;DHT22;9779;51.756;7.450;2023-07-30T14:23:37;19.90;1.00
19292;DHT22;9779;51.756;7.450;2023-07-30T14:26:03;20.30;1.00
19292;DHT22;9779;51.756;7.450;2023-07-30T14:28:29;20.70;1.00
19292;DHT22;9779;51.756;7.450;2023-07-30T14:30:55;20.90;99.90
19292;DHT22;9779;51.756;7.450;2023-07-30T14:33:20;21.00;99.90
19292;DHT22;9779;51.756;7.450;2023-07-30T14:35:49;20.90;99.90
19292;DHT22;9779;51.756;7.450;2023-07-30T14:38:14;20.80;99.90
19292;DHT22;9779;51.756;7.450;2023-07-30T14:40:42;20.80;99.90
19292;DHT22;9779;51.756;7.450;2023-07-30T14:43:08;20.80;99.90
19292;DHT22;9779;51.756;7.450;2023-07-30T14:45:37;20.80;99.90
19292;DHT22;9779;51.756;7.450;2023-07-30T14:48:02;20.90;1.00
19292;DHT22;9779;51.756;7.450;2023-07-30T14:50:28;20.80;1.00
19292;DHT22;9779;51.756;7.450;2023-07-30T14:52:54;20.50;1.00
19292;DHT22;9779;51.756;7.450;2023-07-30T14:55:20;20.40;99.90
19292;DHT22;9779;51.756;7.450;2023-07-30T14:57:51;20.40;1.00
19292;DHT22;9779;51.756;7.450;2023-07-30T15:00:17;20.70;1.00
19292;DHT22;9779;51.756;7.450;2023-07-30T15:02:43;21.10;1.00
19292;DHT22;9779;51.756;7.450;2023-07-30T15:05:12;21.30;99.90
19292;DHT22;9779;51.756;7.450;2023-07-30T15:07:38;21.30;1.00
19292;DHT22;9779;51.756;7.450;2023-07-30T15:10:04;21.20;99.90
19292;DHT22;9779;51.756;7.450;2023-07-30T15:12:29;21.40;1.00
19292;DHT22;9779;51.756;7.450;2023-07-30T15:14:55;21.70;1.00
19292;DHT22;9779;51.756;7.450;2023-07-30T15:17:21;22.00;1.00
19292;DHT22;9779;51.756;7.450;2023-07-30T15:19:49;22.40;1.00
19292;DHT22;9779;51.756;7.450;2023-07-30T15:22:16;22.60;1.00
19292;DHT22;9779;51.756;7.450;2023-07-30T15:24:42;22.70;99.90
19292;DHT22;9779;51.756;7.450;2023-07-30T15:27:07;22.80;1.00
19292;DHT22;9779;51.756;7.450;2023-07-30T15:29:33;22.60;40.70
19292;DHT22;9779;51.756;7.450;2023-07-30T15:32:02;22.50;99.90
19292;DHT22;9779;51.756;7.450;2023-07-30T15:34:28;22.50;1.00
19292;DHT22;9779;51.756;7.450;2023-07-30T15:36:53;22.40;1.00
19292;DHT22;9779;51.756;7.450;2023-07-30T15:39:19;22.10;1.00
19292;DHT22;9779;51.756;7.450;2023-07-30T15:41:49;22.20;1.00
19292;DHT22;9779;51.756;7.450;2023-07-30T15:44:15;22.50;1.00
19292;DHT22;9779;51.756;7.450;2023-07-30T15:46:44;22.80;99.90
19292;DHT22;9779;51.756;7.450;2023-07-30T15:49:10;22.70;99.90
19292;DHT22;9779;51.756;7.450;2023-07-30T15:51:38;22.20;1.00
19292;DHT22;9779;51.756;7.450;2023-07-30T15:54:03;21.90;1.00
19292;DHT22;9779;51.756;7.450;2023-07-30T15:56:33;21.60;99.90
19292;DHT22;9779;51.756;7.450;2023-07-30T15:58:58;21.40;1.00